Time;durP1;ratioP1;P1;durP2;ratioP2;P2;SDS_P1;SDS_P2;PMS_P1;PMS_P2;Temp;Humidity;BMP_temperature;BMP_pressure;BME280_temperature;BME280_humidity;BME280_pressure;Samples;Min_cycle;Max_cycle;Signal;HPM_P1;HPM_P2
2022/06/12 00:00:50;;;;;;;6.60;5.00;;;21.10;96.90;;;;;;5036649;28;20967;-73
2022/06/12 00:03:19;;;;;;;8.10;5.90;;;21.10;97.10;;;;;;5020098;28;20464;-73
2022/06/12 00:05:52;;;;;;;8.87;5.30;;;21.10;97.30;;;;;;5031430;28;20422;-73
2022/06/12 00:08:20;;;;;;;13.23;6.70;;;21.00;97.30;;;;;;5015194;28;20421;-73
2022/06/12 00:10:50;;;;;;;13.00;6.77;;;21.00;97.40;;;;;;5029046;28;20476;-73
2022/06/12 00:13:21;;;;;;;13.80;7.60;;;20.90;97.30;;;;;;5015529;28;20832;-73
2022/06/12 00:15:47;;;;;;;9.80;5.90;;;20.90;97.30;;;;;;5041895;28;21167;-73
2022/06/12 00:18:16;;;;;;;12.90;7.50;;;20.90;97.20;;;;;;5040998;28;20480;-73
2022/06/12 00:20:42;;;;;;;10.50;6.53;;;20.80;97.00;;;;;;5032081;28;20442;-73
2022/06/12 00:23:13;;;;;;;12.13;6.77;;;20.80;96.90;;;;;;5014513;28;20423;-73
2022/06/12 00:25:40;;;;;;;12.17;6.20;;;20.80;96.80;;;;;;5032516;28;20412;-73
2022/06/12 00:28:06;;;;;;;8.40;5.13;;;20.70;96.70;;;;;;5033260;28;20918;-73
2022/06/12 00:30:33;;;;;;;13.57;5.90;;;20.70;96.70;;;;;;4998196;28;20450;-73
2022/06/12 00:33:05;;;;;;;8.60;5.30;;;20.60;96.70;;;;;;5014744;28;20471;-73
2022/06/12 00:35:35;;;;;;;13.33;6.07;;;20.60;96.70;;;;;;5014482;28;20441;-73
2022/06/12 00:38:04;;;;;;;11.50;7.10;;;20.60;96.70;;;;;;5014681;28;20462;-73
2022/06/12 00:40:30;;;;;;;11.60;7.60;;;20.50;96.70;;;;;;5033152;28;20450;-73
2022/06/12 00:43:01;;;;;;;14.53;8.47;;;20.50;96.80;;;;;;5036721;28;20435;-73
2022/06/12 00:45:42;;;;;;;11.80;7.07;;;20.40;96.70;;;;;;5018006;28;20524;-75
2022/06/12 00:48:23;;;;;;;10.97;6.00;;;20.40;96.70;;;;;;5015950;28;20447;-73
2022/06/12 00:50:58;;;;;;;12.90;5.97;;;20.30;96.60;;;;;;5031348;28;20843;-73
2022/06/12 00:53:35;;;;;;;12.10;5.53;;;20.30;96.50;;;;;;5019954;28;20435;-73
2022/06/12 00:56:15;;;;;;;13.47;5.67;;;20.20;96.40;;;;;;5018014;28;20534;-73
2022/06/12 00:58:51;;;;;;;12.37;5.47;;;20.20;96.50;;;;;;5032585;28;20453;-73
2022/06/12 01:01:23;;;;;;;9.50;5.13;;;20.10;96.60;;;;;;5035111;28;20493;-72
2022/06/12 01:06:38;;;;;;;12.90;6.33;;;20.10;96.70;;;;;;5031727;28;20833;-73
2022/06/12 01:09:11;;;;;;;10.23;7.27;;;20.00;96.80;;;;;;5036211;28;20777;-73
2022/06/12 01:11:44;;;;;;;11.13;7.50;;;20.00;96.90;;;;;;5037790;28;20452;-73
2022/06/12 01:14:18;;;;;;;14.00;6.30;;;19.90;97.00;;;;;;5036612;28;20988;-74
2022/06/12 01:16:48;;;;;;;9.83;5.70;;;19.90;97.20;;;;;;5051670;28;20831;-74
2022/06/12 01:19:35;;;;;;;8.80;5.40;;;19.90;97.30;;;;;;5046391;28;21032;-74
2022/06/12 01:22:13;;;;;;;7.23;5.10;;;19.90;97.50;;;;;;5011759;28;20460;-74
2022/06/12 01:24:58;;;;;;;7.77;4.80;;;19.80;97.60;;;;;;5015128;28;20393;-74
2022/06/12 01:28:12;;;;;;;10.80;5.23;;;19.80;97.70;;;;;;5035703;28;20481;-74
2022/06/12 01:30:55;;;;;;;6.43;4.30;;;19.70;97.80;;;;;;5022671;28;20449;-74
2022/06/12 01:33:43;;;;;;;7.57;4.00;;;19.70;97.90;;;;;;5018698;28;20439;-74
2022/06/12 01:36:31;;;;;;;9.53;4.80;;;19.70;98.10;;;;;;5022673;28;20425;-74
2022/06/12 01:39:11;;;;;;;9.40;4.73;;;19.60;98.20;;;;;;5013667;28;20469;-73
2022/06/12 01:41:46;;;;;;;7.60;4.47;;;19.50;98.30;;;;;;5012650;28;20491;-74
2022/06/12 01:44:40;;;;;;;8.87;4.43;;;19.50;98.40;;;;;;5066081;28;20882;-74
2022/06/12 01:47:33;;;;;;;9.00;3.47;;;19.50;98.40;;;;;;5051589;28;20858;-74
2022/06/12 01:50:11;;;;;;;7.50;3.80;;;19.50;98.50;;;;;;5051159;28;20418;-74
2022/06/12 01:52:42;;;;;;;7.63;3.90;;;19.40;98.60;;;;;;5014943;28;20941;-74
2022/06/12 01:55:15;;;;;;;6.63;4.20;;;19.30;98.60;;;;;;5034926;28;20455;-74
2022/06/12 01:57:51;;;;;;;10.13;3.97;;;19.30;98.60;;;;;;5021144;28;20473;-74
2022/06/12 02:00:25;;;;;;;12.07;4.10;;;19.30;98.60;;;;;;5050697;28;20458;-74
2022/06/12 02:02:59;;;;;;;7.50;4.67;;;19.30;98.60;;;;;;5052636;28;20456;-74
2022/06/12 02:05:30;;;;;;;16.70;3.97;;;19.20;98.60;;;;;;5033675;28;20404;-74
2022/06/12 02:08:28;;;;;;;6.83;4.10;;;19.10;98.50;;;;;;5008157;28;20495;-74
2022/06/12 02:14:14;;;;;;;5.33;4.00;;;19.00;98.40;;;;;;5034003;28;20418;-74
2022/06/12 02:16:47;;;;;;;5.53;3.60;;;19.00;98.40;;;;;;5031065;28;20435;-74
2022/06/12 02:19:23;;;;;;;11.37;3.90;;;19.00;98.40;;;;;;5028719;28;20829;-74
2022/06/12 02:21:57;;;;;;;6.07;3.90;;;18.90;98.50;;;;;;5024254;28;20802;-74
2022/06/12 02:24:50;;;;;;;6.13;4.40;;;18.80;98.50;;;;;;5031828;28;20957;-74
2022/06/12 02:27:26;;;;;;;10.37;3.80;;;18.80;98.50;;;;;;5048459;28;20433;-74
2022/06/12 02:29:56;;;;;;;4.20;3.33;;;18.80;98.50;;;;;;5027635;28;20807;-74
2022/06/12 02:32:30;;;;;;;5.87;3.63;;;18.80;98.50;;;;;;5034611;28;20431;-74
2022/06/12 02:35:07;;;;;;;7.33;4.30;;;18.70;98.30;;;;;;5047048;28;20515;-74
2022/06/12 02:37:48;;;;;;;5.70;3.60;;;18.70;98.30;;;;;;5033176;28;20439;-74
2022/06/12 02:40:45;;;;;;;7.87;3.87;;;18.70;98.30;;;;;;5049052;28;20443;-74
2022/06/12 02:43:20;;;;;;;5.30;3.13;;;18.60;98.20;;;;;;5014620;28;20420;-74
2022/06/12 02:45:55;;;;;;;7.73;3.63;;;18.60;98.30;;;;;;5019379;28;20392;-74
2022/06/12 02:48:21;;;;;;;7.50;4.80;;;18.50;98.30;;;;;;5035499;28;20452;-74
2022/06/12 02:51:05;;;;;;;5.67;3.60;;;18.40;98.30;;;;;;5022162;28;20451;-74
2022/06/12 02:53:58;;;;;;;9.23;3.90;;;18.40;98.30;;;;;;5027383;28;20422;-74
2022/06/12 02:56:42;;;;;;;11.20;4.83;;;18.30;98.30;;;;;;5031067;28;20443;-74
2022/06/12 02:59:21;;;;;;;7.23;3.50;;;18.30;98.40;;;;;;5044243;28;20469;-74
2022/06/12 03:02:05;;;;;;;9.10;3.80;;;18.20;98.50;;;;;;5032573;28;20855;-74
2022/06/12 03:05:09;;;;;;;10.23;3.80;;;18.20;98.60;;;;;;5044121;28;20422;-74
2022/06/12 03:07:35;;;;;;;5.63;4.10;;;18.10;98.60;;;;;;5008876;28;20447;-74
2022/06/12 03:10:11;;;;;;;9.33;3.87;;;18.10;98.60;;;;;;5027828;28;20431;-74
2022/06/12 03:12:40;;;;;;;7.77;4.53;;;18.10;98.60;;;;;;5019882;28;20412;-74
2022/06/12 03:15:26;;;;;;;12.50;4.83;;;18.00;98.70;;;;;;5040724;28;20441;-74
2022/06/12 03:17:56;;;;;;;7.70;4.37;;;18.00;98.70;;;;;;5024957;28;21069;-74
2022/06/12 03:20:30;;;;;;;6.63;3.50;;;17.90;98.80;;;;;;5033527;28;20451;-74
2022/06/12 03:23:24;;;;;;;7.30;4.40;;;17.90;98.90;;;;;;5033750;28;20396;-74
2022/06/12 03:25:54;;;;;;;4.30;3.70;;;17.80;99.00;;;;;;5031607;28;21003;-74
2022/06/12 03:28:33;;;;;;;5.40;4.10;;;17.80;99.00;;;;;;5041512;28;20434;-74
2022/06/12 03:31:04;;;;;;;7.43;4.37;;;17.80;99.10;;;;;;5037356;28;20447;-74
2022/06/12 03:33:42;;;;;;;6.80;4.10;;;17.80;99.10;;;;;;5021758;28;20556;-74
2022/06/12 03:36:23;;;;;;;7.90;4.20;;;17.70;99.10;;;;;;5030285;28;20409;-74
2022/06/12 03:39:06;;;;;;;6.40;4.50;;;17.70;99.20;;;;;;5031768;28;20476;-74
2022/06/12 03:41:41;;;;;;;5.63;4.47;;;17.70;99.30;;;;;;5023078;28;20458;-74
2022/06/12 03:44:36;;;;;;;6.20;4.00;;;17.70;99.40;;;;;;5033109;28;20501;-74
2022/06/12 03:47:17;;;;;;;9.97;3.87;;;17.60;99.30;;;;;;5019119;28;20423;-74
2022/06/12 03:49:55;;;;;;;8.30;4.50;;;17.60;99.30;;;;;;5001777;28;20498;-74
2022/06/12 03:52:28;;;;;;;5.03;4.40;;;17.60;99.30;;;;;;5045257;28;20461;-74
2022/06/12 03:55:06;;;;;;;4.47;3.57;;;17.50;99.40;;;;;;5033348;28;21107;-74
2022/06/12 03:57:53;;;;;;;9.90;3.63;;;17.50;99.40;;;;;;5029791;28;20418;-74
2022/06/12 04:00:41;;;;;;;6.33;3.90;;;17.50;99.50;;;;;;5002721;28;20428;-74
2022/06/12 04:03:20;;;;;;;7.10;4.20;;;17.50;99.60;;;;;;5025186;28;20795;-74
2022/06/12 04:05:55;;;;;;;5.27;3.43;;;17.50;99.80;;;;;;5026657;28;20542;-74
2022/06/12 04:08:25;;;;;;;8.43;3.40;;;17.50;99.90;;;;;;5014098;28;20436;-74
2022/06/12 04:10:57;;;;;;;6.10;4.17;;;17.50;99.90;;;;;;5012747;28;20448;-74
2022/06/12 04:13:26;;;;;;;6.97;4.20;;;17.50;99.90;;;;;;5016979;28;20441;-73
2022/06/12 04:16:14;;;;;;;7.47;4.90;;;17.50;99.90;;;;;;5022470;28;20423;-74
2022/06/12 04:18:48;;;;;;;4.70;3.87;;;17.50;99.90;;;;;;5012708;28;20503;-74
2022/06/12 04:21:41;;;;;;;9.40;3.93;;;17.50;99.90;;;;;;5014927;28;20459;-74
2022/06/12 04:24:21;;;;;;;6.37;4.53;;;17.50;99.90;;;;;;5038944;28;20431;-74
2022/06/12 04:27:06;;;;;;;9.50;5.43;;;17.40;99.90;;;;;;5035816;28;20428;-74
2022/06/12 04:29:36;;;;;;;6.90;4.63;;;17.40;99.90;;;;;;5024919;28;20424;-74
2022/06/12 04:32:05;;;;;;;11.30;3.73;;;17.40;99.90;;;;;;5029125;28;20882;-74
2022/06/12 04:34:43;;;;;;;6.93;4.90;;;17.40;99.90;;;;;;5017420;28;20850;-74
2022/06/12 04:37:14;;;;;;;6.37;4.20;;;17.40;99.90;;;;;;5045308;28;20454;-74
2022/06/12 04:39:40;;;;;;;5.27;4.43;;;17.40;99.90;;;;;;5036615;28;20457;-74
2022/06/12 04:42:10;;;;;;;9.90;4.60;;;17.40;99.90;;;;;;5020569;28;20978;-74
2022/06/12 04:44:38;;;;;;;6.43;4.00;;;17.40;99.90;;;;;;5018205;28;20458;-74
2022/06/12 04:47:10;;;;;;;5.63;4.50;;;17.50;99.90;;;;;;5031937;28;20869;-74
2022/06/12 04:49:42;;;;;;;5.33;4.80;;;17.50;99.90;;;;;;5042411;28;20419;-74
2022/06/12 04:52:10;;;;;;;4.90;3.87;;;17.50;99.90;;;;;;5018925;28;20434;-74
2022/06/12 04:54:43;;;;;;;8.00;4.60;;;17.50;99.90;;;;;;5012545;28;20539;-74
2022/06/12 04:57:14;;;;;;;6.33;3.70;;;17.60;99.90;;;;;;5016796;28;20559;-74
2022/06/12 04:59:41;;;;;;;5.00;4.20;;;17.60;99.90;;;;;;5046065;28;20473;-74
2022/06/12 05:02:07;;;;;;;8.43;4.73;;;17.60;99.90;;;;;;5031860;28;20495;-74
2022/06/12 05:04:37;;;;;;;6.47;5.00;;;17.60;99.90;;;;;;5032908;28;20463;-74
2022/06/12 05:07:07;;;;;;;7.20;4.77;;;17.70;99.90;;;;;;5025503;28;20521;-74
2022/06/12 05:09:39;;;;;;;9.23;5.33;;;17.80;99.90;;;;;;5039484;28;20514;-74
2022/06/12 05:12:07;;;;;;;9.43;4.57;;;17.80;99.90;;;;;;5051279;28;20479;-74
2022/06/12 05:14:33;;;;;;;10.93;5.00;;;17.90;99.90;;;;;;5041917;28;20426;-74
2022/06/12 05:17:03;;;;;;;8.93;4.50;;;17.90;99.90;;;;;;5009340;28;20443;-74
2022/06/12 05:19:35;;;;;;;11.10;5.47;;;18.00;99.90;;;;;;5012919;28;20460;-73
2022/06/12 05:22:05;;;;;;;12.73;5.30;;;18.00;99.90;;;;;;5002577;28;20464;-74
2022/06/12 05:24:32;;;;;;;8.07;4.77;;;18.00;99.90;;;;;;5038912;28;20421;-74
2022/06/12 05:27:01;;;;;;;11.97;5.60;;;18.00;99.90;;;;;;5005990;28;20504;-74
2022/06/12 05:29:35;;;;;;;12.00;5.50;;;18.10;99.90;;;;;;4983412;28;20475;-74
2022/06/12 05:32:03;;;;;;;9.93;5.30;;;18.10;99.90;;;;;;5041396;28;20979;-74
2022/06/12 05:34:33;;;;;;;9.33;4.70;;;18.20;99.90;;;;;;5050201;28;20432;-73
2022/06/12 05:36:59;;;;;;;7.70;4.10;;;18.20;99.90;;;;;;5015088;28;20439;-74
2022/06/12 05:39:26;;;;;;;7.40;4.73;;;18.20;99.90;;;;;;5031286;28;20550;-74
2022/06/12 05:41:53;;;;;;;9.97;4.30;;;18.30;99.90;;;;;;5034363;28;20438;-75
2022/06/12 05:44:19;;;;;;;12.10;4.90;;;18.30;99.90;;;;;;5033919;28;20431;-74
2022/06/12 05:46:46;;;;;;;6.63;4.00;;;18.30;99.90;;;;;;5031259;28;20424;-74
2022/06/12 05:49:15;;;;;;;8.63;3.50;;;18.40;99.90;;;;;;5024871;28;20465;-74
2022/06/12 05:51:41;;;;;;;10.10;4.03;;;18.40;99.90;;;;;;5031862;28;20461;-74
2022/06/12 05:54:07;;;;;;;8.37;4.37;;;18.40;99.70;;;;;;5050079;28;20426;-74
2022/06/12 05:56:36;;;;;;;10.93;3.67;;;18.50;99.70;;;;;;5035097;28;20467;-74
2022/06/12 05:59:03;;;;;;;5.10;3.30;;;18.50;99.00;;;;;;5037108;28;20519;-76
2022/06/12 06:01:30;;;;;;;11.33;4.33;;;18.50;98.90;;;;;;5054057;28;20449;-75
2022/06/12 06:03:58;;;;;;;13.83;4.17;;;18.60;98.80;;;;;;5047090;28;20427;-75
2022/06/12 06:06:31;;;;;;;10.70;3.97;;;18.60;98.30;;;;;;4994194;28;21187;-74
2022/06/12 06:09:02;;;;;;;8.23;4.37;;;18.70;98.00;;;;;;5027110;28;20476;-75
2022/06/12 06:11:31;;;;;;;9.43;4.70;;;18.70;97.50;;;;;;5032669;28;20451;-74
2022/06/12 06:13:59;;;;;;;7.10;3.60;;;18.70;97.10;;;;;;5018380;28;20427;-74
2022/06/12 06:16:27;;;;;;;8.67;3.13;;;18.80;96.60;;;;;;5051300;28;20916;-75
2022/06/12 06:18:56;;;;;;;7.93;2.73;;;18.80;96.20;;;;;;5042751;28;21088;-75
2022/06/12 06:21:25;;;;;;;6.80;3.20;;;18.80;95.80;;;;;;5017496;28;20430;-74
2022/06/12 06:23:52;;;;;;;6.53;3.00;;;18.90;95.60;;;;;;5052075;28;20786;-74
2022/06/12 06:26:20;;;;;;;7.33;3.07;;;18.90;95.30;;;;;;5018064;28;20438;-74
2022/06/12 06:28:51;;;;;;;9.97;3.10;;;19.00;95.40;;;;;;5035893;28;21073;-74
2022/06/12 06:31:20;;;;;;;5.77;2.50;;;19.00;95.30;;;;;;5028689;28;20986;-74
2022/06/12 06:33:49;;;;;;;11.13;3.00;;;19.10;95.10;;;;;;5032973;28;20426;-74
2022/06/12 06:36:16;;;;;;;11.63;3.20;;;19.10;95.10;;;;;;5042229;28;20427;-74
2022/06/12 06:38:43;;;;;;;11.20;2.80;;;19.10;95.60;;;;;;5042582;28;20472;-74
2022/06/12 06:41:14;;;;;;;7.03;2.90;;;19.10;95.60;;;;;;5012024;28;20486;-74
2022/06/12 06:46:32;;;;;;;15.90;3.87;;;19.20;95.20;;;;;;5015126;28;20573;-74
2022/06/12 06:49:03;;;;;;;9.50;3.77;;;19.20;95.60;;;;;;5062158;28;20505;-74
2022/06/12 06:51:32;;;;;;;6.20;3.37;;;19.30;96.50;;;;;;5037217;28;20817;-74
2022/06/12 06:54:01;;;;;;;6.60;3.97;;;19.30;96.90;;;;;;5036477;28;20854;-74
2022/06/12 06:56:27;;;;;;;13.87;3.63;;;19.30;97.10;;;;;;5053988;28;20789;-74
2022/06/12 06:58:53;;;;;;;13.37;4.40;;;19.30;97.10;;;;;;5048824;28;21020;-75
2022/06/12 07:01:19;;;;;;;8.00;3.50;;;19.40;97.80;;;;;;5019217;28;20447;-71
2022/06/12 07:03:48;;;;;;;7.93;3.60;;;19.40;97.60;;;;;;5001259;28;20942;-70
2022/06/12 07:06:16;;;;;;;7.60;3.30;;;19.50;96.30;;;;;;5033219;28;20799;-71
2022/06/12 07:08:45;;;;;;;14.47;3.83;;;19.40;96.10;;;;;;5017445;28;21027;-70
2022/06/12 07:11:11;;;;;;;8.20;2.87;;;19.50;95.90;;;;;;5018947;28;20454;-70
2022/06/12 07:13:37;;;;;;;10.73;3.43;;;19.50;95.70;;;;;;5055170;28;20411;-70
2022/06/12 07:16:07;;;;;;;8.97;3.33;;;19.60;95.90;;;;;;5054221;28;20440;-70
2022/06/12 07:18:33;;;;;;;6.00;2.80;;;19.60;95.80;;;;;;5053860;28;20461;-70
2022/06/12 07:21:02;;;;;;;11.73;3.13;;;19.60;95.90;;;;;;5037559;28;20432;-70
2022/06/12 07:23:30;;;;;;;6.93;2.87;;;19.60;95.70;;;;;;5054011;28;20399;-70
2022/06/12 07:25:59;;;;;;;7.47;2.80;;;19.70;95.10;;;;;;5037508;28;20415;-70
2022/06/12 07:28:28;;;;;;;7.23;3.13;;;19.60;93.90;;;;;;5053841;28;20494;-70
2022/06/12 07:30:55;;;;;;;6.07;2.43;;;19.60;94.00;;;;;;5054926;28;20430;-70
2022/06/12 07:33:28;;;;;;;6.00;2.50;;;19.70;93.20;;;;;;5055198;28;20410;-70
2022/06/12 07:35:54;;;;;;;7.03;3.43;;;19.70;93.00;;;;;;5037300;28;20415;-70
2022/06/12 07:38:25;;;;;;;7.47;2.30;;;19.70;93.10;;;;;;5053614;28;20816;-70
2022/06/12 07:40:58;;;;;;;5.30;2.43;;;19.80;93.30;;;;;;5037002;28;20436;-70
2022/06/12 07:43:29;;;;;;;10.27;2.87;;;19.80;93.10;;;;;;5054773;28;20446;-70
2022/06/12 07:45:57;;;;;;;6.40;2.10;;;19.80;92.60;;;;;;5053578;28;20842;-70
2022/06/12 07:48:26;;;;;;;5.67;2.20;;;19.80;91.80;;;;;;5054674;28;20396;-70
2022/06/12 07:50:58;;;;;;;4.70;2.57;;;19.80;92.40;;;;;;5053568;28;20437;-70
2022/06/12 07:53:30;;;;;;;5.00;1.97;;;19.90;92.40;;;;;;5053421;28;20426;-70
2022/06/12 07:55:57;;;;;;;6.23;2.27;;;19.90;92.20;;;;;;5053325;28;20427;-70
2022/06/12 07:58:24;;;;;;;5.43;1.93;;;20.00;91.40;;;;;;5054368;28;20448;-70
2022/06/12 08:00:58;;;;;;;6.50;2.37;;;20.10;90.50;;;;;;5041914;28;20859;-70
2022/06/12 08:03:27;;;;;;;8.30;2.10;;;20.10;90.20;;;;;;5033426;28;20459;-70
2022/06/12 08:05:54;;;;;;;5.73;2.00;;;20.10;90.10;;;;;;5034391;28;20403;-70
2022/06/12 08:08:20;;;;;;;3.80;2.03;;;20.20;89.70;;;;;;5034189;28;20420;-70
2022/06/12 08:10:51;;;;;;;8.30;2.13;;;20.20;87.70;;;;;;5016686;28;20454;-70
2022/06/12 08:13:20;;;;;;;5.03;2.10;;;20.20;87.90;;;;;;5034381;28;20441;-70
2022/06/12 08:15:48;;;;;;;4.63;1.63;;;20.20;86.40;;;;;;5033003;28;20452;-70
2022/06/12 08:18:15;;;;;;;2.83;1.70;;;20.20;86.00;;;;;;5033235;28;20474;-70
2022/06/12 08:20:48;;;;;;;6.47;2.20;;;20.20;86.40;;;;;;5049459;28;20446;-70
2022/06/12 08:23:33;;;;;;;4.40;1.93;;;20.30;87.20;;;;;;5052914;28;20507;-70
2022/06/12 08:26:19;;;;;;;2.77;1.80;;;20.40;86.60;;;;;;5036179;28;20432;-69
2022/06/12 08:28:58;;;;;;;7.83;1.77;;;20.40;87.10;;;;;;5053929;28;20409;-69
2022/06/12 08:31:31;;;;;;;3.63;1.97;;;20.40;86.60;;;;;;5035981;28;20460;-70
2022/06/12 08:34:04;;;;;;;3.10;1.60;;;20.40;85.20;;;;;;5035581;28;20826;-70
2022/06/12 08:36:37;;;;;;;6.53;1.73;;;20.40;84.40;;;;;;5028687;28;20440;-69
2022/06/12 08:39:07;;;;;;;3.83;1.93;;;20.40;83.60;;;;;;5033135;28;20449;-69
2022/06/12 08:41:47;;;;;;;4.80;2.27;;;20.40;82.20;;;;;;5031918;28;20914;-70
2022/06/12 08:44:21;;;;;;;6.30;1.73;;;20.40;83.50;;;;;;5033636;28;20946;-70
2022/06/12 08:46:56;;;;;;;6.47;2.00;;;20.50;83.90;;;;;;5032339;28;20472;-69
2022/06/12 08:49:27;;;;;;;5.77;1.93;;;20.50;84.90;;;;;;5032761;28;20434;-72
2022/06/12 08:51:58;;;;;;;7.43;2.27;;;20.50;85.40;;;;;;5032283;28;20439;-69
2022/06/12 08:55:01;;;;;;;7.97;2.13;;;20.50;84.10;;;;;;5039430;28;20435;-70
2022/06/12 08:57:54;;;;;;;4.57;2.13;;;20.60;85.90;;;;;;5013313;28;20974;-70
2022/06/12 09:00:23;;;;;;;4.57;2.13;;;20.70;85.60;;;;;;5031534;28;20409;-70
2022/06/12 09:02:51;;;;;;;8.70;1.90;;;20.80;84.50;;;;;;5014962;28;20450;-70
2022/06/12 09:05:27;;;;;;;7.73;2.20;;;20.80;84.10;;;;;;5031616;28;20890;-70
2022/06/12 09:08:26;;;;;;;8.50;1.97;;;20.80;85.90;;;;;;5031006;28;20525;-71
2022/06/12 09:11:14;;;;;;;6.90;2.13;;;20.90;83.50;;;;;;4975621;28;20453;-73
2022/06/12 09:14:01;;;;;;;6.10;1.80;;;20.80;83.70;;;;;;5008058;28;20426;-72
2022/06/12 09:16:50;;;;;;;7.17;1.87;;;20.80;83.90;;;;;;5012123;28;20427;-70
2022/06/12 09:19:28;;;;;;;3.47;1.97;;;20.90;85.10;;;;;;5011406;28;20450;-71
2022/06/12 09:22:22;;;;;;;5.23;1.60;;;21.00;86.20;;;;;;5027454;22;20432;-72
2022/06/12 09:25:14;;;;;;;8.60;2.27;;;21.10;85.70;;;;;;5013095;28;20431;-72
2022/06/12 09:27:48;;;;;;;5.37;2.03;;;21.20;85.20;;;;;;4991638;28;20462;-72
2022/06/12 09:30:48;;;;;;;5.87;1.70;;;21.20;85.10;;;;;;4994491;28;20426;-72
2022/06/12 09:33:43;;;;;;;4.40;1.40;;;21.30;84.40;;;;;;5008498;28;20572;-72
2022/06/12 09:36:28;;;;;;;6.07;1.90;;;21.40;85.30;;;;;;4977021;28;20446;-72
2022/06/12 09:39:31;;;;;;;7.10;1.93;;;21.50;85.20;;;;;;5022392;28;20498;-72
2022/06/12 09:41:56;;;;;;;4.60;1.97;;;21.60;80.70;;;;;;5024943;28;20434;-72
2022/06/12 09:44:52;;;;;;;6.47;2.60;;;21.60;83.50;;;;;;5018644;28;20444;-72
2022/06/12 09:47:41;;;;;;;6.80;2.30;;;21.70;80.70;;;;;;5014495;28;20431;-72
2022/06/12 09:50:33;;;;;;;6.97;1.60;;;21.70;81.60;;;;;;5005480;28;20439;-73
2022/06/12 09:53:16;;;;;;;7.40;1.90;;;21.80;81.20;;;;;;4978305;28;20455;-71
2022/06/12 09:55:49;;;;;;;4.67;1.77;;;21.80;81.10;;;;;;4999570;28;20422;-74
2022/06/12 09:58:19;;;;;;;3.00;1.80;;;21.90;81.40;;;;;;5010069;28;20546;-72
2022/06/12 10:00:54;;;;;;;7.10;1.97;;;21.90;81.80;;;;;;5009634;28;20456;-72
2022/06/12 10:03:49;;;;;;;5.50;1.87;;;22.00;79.60;;;;;;5009877;28;20860;-73
2022/06/12 10:06:38;;;;;;;5.43;1.90;;;22.00;79.30;;;;;;4993159;28;20793;-72
2022/06/12 10:09:28;;;;;;;4.47;1.93;;;22.10;79.40;;;;;;5001489;28;20420;-77
2022/06/12 10:12:05;;;;;;;11.37;2.70;;;22.20;79.80;;;;;;5009794;28;22133;-74
2022/06/12 10:14:56;;;;;;;5.80;1.83;;;22.30;79.60;;;;;;4977698;28;20419;-69
2022/06/12 10:17:39;;;;;;;4.77;2.00;;;22.30;76.60;;;;;;5005284;28;20936;-71
2022/06/12 10:20:13;;;;;;;6.53;2.40;;;22.40;76.40;;;;;;5009846;28;21028;-69
2022/06/12 10:22:45;;;;;;;3.23;1.80;;;22.40;77.20;;;;;;5010036;28;20438;-69
2022/06/12 10:25:35;;;;;;;5.13;2.00;;;22.40;78.00;;;;;;4976991;28;20426;-71
2022/06/12 10:28:06;;;;;;;7.90;2.63;;;22.40;78.20;;;;;;5011622;28;20456;-76
2022/06/12 10:30:35;;;;;;;6.97;2.77;;;22.50;78.70;;;;;;4993937;28;21002;-75
2022/06/12 10:33:26;;;;;;;5.97;2.03;;;22.50;79.10;;;;;;4993809;28;20420;-76
2022/06/12 10:35:58;;;;;;;6.17;1.80;;;22.70;80.60;;;;;;4994603;28;20776;-74
2022/06/12 10:38:34;;;;;;;5.87;2.20;;;22.80;81.20;;;;;;5010726;28;20474;-72
2022/06/12 10:41:19;;;;;;;6.80;2.17;;;22.80;79.90;;;;;;4991982;28;20780;-74
2022/06/12 10:43:49;;;;;;;8.93;2.57;;;23.00;81.40;;;;;;5004062;28;20562;-74
2022/06/12 10:46:31;;;;;;;6.50;2.47;;;23.10;78.40;;;;;;5015113;28;20417;-77
2022/06/12 10:49:17;;;;;;;6.60;2.40;;;23.10;78.40;;;;;;4997314;28;20791;-75
2022/06/12 10:51:46;;;;;;;6.97;2.50;;;23.20;76.90;;;;;;4997312;28;20604;-75
2022/06/12 10:54:20;;;;;;;7.70;2.53;;;23.30;79.00;;;;;;5013240;28;20941;-73
2022/06/12 10:57:18;;;;;;;7.03;2.53;;;23.30;79.80;;;;;;4997016;28;20432;-73
2022/06/12 11:00:18;;;;;;;6.00;2.17;;;23.40;82.80;;;;;;5012655;28;20818;-74
2022/06/12 11:03:01;;;;;;;8.73;2.10;;;23.50;81.00;;;;;;5013036;28;20458;-74
2022/06/12 11:05:42;;;;;;;5.70;2.07;;;23.50;77.10;;;;;;5012977;28;20424;-74
2022/06/12 11:08:15;;;;;;;5.63;2.30;;;23.50;78.40;;;;;;5001364;28;20521;-74
2022/06/12 11:11:09;;;;;;;6.90;2.77;;;23.60;80.40;;;;;;5017800;28;20532;-73
2022/06/12 11:14:20;;;;;;;5.90;2.13;;;23.70;78.80;;;;;;4983015;28;20451;-73
2022/06/12 11:16:46;;;;;;;5.13;1.90;;;23.70;77.70;;;;;;5039849;28;20594;-74
2022/06/12 11:19:21;;;;;;;7.83;2.40;;;23.70;80.60;;;;;;5025522;28;20460;-73
2022/06/12 11:21:59;;;;;;;6.67;2.53;;;23.70;78.30;;;;;;5005316;28;20452;-74
2022/06/12 11:24:56;;;;;;;11.80;3.03;;;23.80;77.80;;;;;;4996821;28;21098;-74
2022/06/12 11:27:35;;;;;;;4.20;2.07;;;23.90;77.40;;;;;;4996454;28;20492;-73
2022/06/12 11:30:40;;;;;;;5.50;2.80;;;23.90;77.70;;;;;;4995939;28;20470;-73
2022/06/12 11:33:38;;;;;;;8.33;2.23;;;24.10;78.00;;;;;;4977948;28;20431;-73
2022/06/12 11:36:09;;;;;;;9.07;2.20;;;24.10;77.90;;;;;;5021571;28;20435;-73
2022/06/12 11:39:04;;;;;;;7.93;2.60;;;24.10;73.00;;;;;;5034262;28;20496;-74
2022/06/12 11:41:39;;;;;;;5.87;2.43;;;24.10;74.30;;;;;;4992691;28;20448;-74
2022/06/12 11:44:13;;;;;;;4.20;1.87;;;24.10;73.50;;;;;;5012521;28;20452;-74
2022/06/12 11:46:48;;;;;;;6.33;2.03;;;24.10;74.40;;;;;;5014351;28;20470;-74
2022/06/12 11:49:21;;;;;;;7.50;2.43;;;24.10;73.20;;;;;;5012432;28;20505;-74
2022/06/12 11:52:01;;;;;;;6.70;2.40;;;24.20;74.40;;;;;;4980070;28;20471;-73
2022/06/12 11:54:35;;;;;;;8.33;2.30;;;24.20;75.00;;;;;;5013271;28;20474;-74
2022/06/12 11:57:40;;;;;;;8.47;2.40;;;24.20;74.70;;;;;;4995683;28;20549;-74
2022/06/12 12:00:09;;;;;;;5.93;2.27;;;24.20;75.60;;;;;;4975371;28;20495;-75
2022/06/12 12:02:49;;;;;;;6.27;2.33;;;24.10;76.50;;;;;;5028561;28;20454;-74
2022/06/12 12:05:49;;;;;;;6.57;2.40;;;24.10;73.70;;;;;;4986571;28;20456;-74
2022/06/12 12:08:33;;;;;;;5.27;2.33;;;24.10;74.80;;;;;;5013494;28;20432;-73
2022/06/12 12:11:25;;;;;;;5.90;2.47;;;24.20;75.30;;;;;;4995338;28;20478;-73
2022/06/12 12:13:59;;;;;;;5.77;2.27;;;24.20;73.80;;;;;;5011395;28;21140;-73
2022/06/12 12:16:44;;;;;;;5.80;2.73;;;24.30;75.20;;;;;;5012076;28;20397;-73
2022/06/12 12:19:14;;;;;;;7.70;2.90;;;24.20;76.30;;;;;;4995087;28;21274;-73
2022/06/12 12:22:05;;;;;;;4.07;2.00;;;24.20;77.90;;;;;;4995608;28;20526;-73
2022/06/12 12:24:51;;;;;;;7.23;3.00;;;24.20;76.20;;;;;;5015446;28;20529;-74
2022/06/12 12:27:35;;;;;;;8.17;3.03;;;24.10;76.60;;;;;;4995515;28;20459;-73
2022/06/12 12:30:09;;;;;;;9.00;2.50;;;24.20;75.70;;;;;;4995449;28;20416;-73
2022/06/12 12:32:36;;;;;;;9.10;2.50;;;24.20;75.70;;;;;;5011585;28;20448;-73
2022/06/12 12:35:04;;;;;;;11.17;3.07;;;24.20;73.90;;;;;;5012669;28;20909;-73
2022/06/12 12:43:21;;;;;;;8.00;2.60;;;24.30;72.40;;;;;;5011817;28;20428;-71
2022/06/12 12:46:00;;;;;;;6.43;2.77;;;24.30;75.20;;;;;;4995997;28;20428;-70
2022/06/12 12:48:40;;;;;;;5.80;2.50;;;24.30;75.10;;;;;;4996082;28;20423;-71
2022/06/12 12:51:10;;;;;;;5.40;2.40;;;24.40;74.10;;;;;;5011575;28;20843;-71
2022/06/12 12:53:38;;;;;;;6.77;2.57;;;24.40;73.30;;;;;;4995722;28;20448;-70
2022/06/12 12:56:08;;;;;;;5.27;2.60;;;24.40;71.60;;;;;;4995912;28;20413;-70
2022/06/12 12:58:41;;;;;;;6.73;3.03;;;24.40;71.00;;;;;;4995582;28;20464;-70
2022/06/12 13:01:19;;;;;;;5.37;2.67;;;24.40;72.20;;;;;;4993547;28;20520;-70
2022/06/12 13:04:10;;;;;;;6.73;2.63;;;24.30;73.20;;;;;;4994267;28;20472;-70
2022/06/12 13:07:11;;;;;;;4.87;2.00;;;24.40;71.20;;;;;;4995785;28;20428;-71
2022/06/12 13:10:36;;;;;;;7.47;2.40;;;24.40;70.50;;;;;;5011798;28;20440;-70
2022/06/12 13:13:28;;;;;;;7.57;2.80;;;24.40;71.90;;;;;;4962864;28;20448;-71
2022/06/12 13:16:24;;;;;;;3.67;1.87;;;24.50;72.50;;;;;;5010566;28;21003;-70
2022/06/12 13:19:18;;;;;;;6.07;2.47;;;24.60;72.00;;;;;;5012600;28;20452;-70
2022/06/12 13:21:53;;;;;;;7.43;2.37;;;24.50;72.00;;;;;;5011312;28;20436;-71
2022/06/12 13:24:46;;;;;;;6.00;2.40;;;24.50;72.10;;;;;;4995384;28;20435;-70
2022/06/12 13:27:21;;;;;;;6.23;2.77;;;24.50;73.30;;;;;;5011350;28;20503;-70
2022/06/12 13:29:50;;;;;;;6.83;2.60;;;24.50;72.50;;;;;;5011309;28;20443;-70
2022/06/12 13:32:29;;;;;;;7.53;2.80;;;24.50;72.60;;;;;;5011666;28;21116;-71
2022/06/12 13:34:58;;;;;;;5.50;2.73;;;24.60;72.60;;;;;;4995080;28;20974;-70
2022/06/12 13:37:28;;;;;;;11.90;3.13;;;24.70;72.30;;;;;;5010447;28;20574;-70
2022/06/12 13:40:00;;;;;;;10.33;3.07;;;24.80;71.90;;;;;;4995334;28;20823;-71
2022/06/12 13:42:29;;;;;;;8.50;2.70;;;24.90;71.00;;;;;;4994522;28;20578;-71
2022/06/12 13:44:57;;;;;;;4.63;2.20;;;24.90;71.30;;;;;;5011172;28;20971;-71
2022/06/12 13:47:30;;;;;;;5.50;2.20;;;25.00;70.40;;;;;;5004671;28;20424;-71